Time;durP1;ratioP1;P1;durP2;ratioP2;P2;SDS_P1;SDS_P2;PMS_P1;PMS_P2;Temp;Humidity;BMP_temperature;BMP_pressure;BME280_temperature;BME280_humidity;BME280_pressure;Samples;Min_cycle;Max_cycle;Signal;HPM_P1;HPM_P2
2023/12/01 00:00:35;;;;;;;;;;;;;;;17.85;63.84;97401.13;2100737;28;19932;-64
2023/12/01 00:01:36;;;;;;;;;;;;;;;17.84;63.84;97407.56;2099348;28;20489;-65
2023/12/01 00:02:37;;;;;;;;;;;;;;;17.85;64.04;97389.59;2099411;28;19928;-67
2023/12/01 00:03:38;;;;;;;;;;;;;;;17.85;63.84;97397.63;2100753;28;19977;-66
2023/12/01 00:04:40;;;;;;;;;;;;;;;17.81;64.22;97386.56;2100357;28;20311;-64
2023/12/01 00:05:40;;;;;;;;;;;;;;;17.83;63.88;97394.38;2097688;28;20372;-65
2023/12/01 00:06:42;;;;;;;;;;;;;;;17.83;63.92;97391.72;2095811;28;19932;-65
2023/12/01 00:07:43;;;;;;;;;;;;;;;17.82;63.85;97388.19;2098112;28;19928;-65
2023/12/01 00:08:44;;;;;;;;;;;;;;;17.83;64.03;97389.03;2097915;28;20020;-65
2023/12/01 00:09:45;;;;;;;;;;;;;;;17.82;63.85;97390.88;2101410;28;20311;-65
2023/12/01 00:10:46;;;;;;;;;;;;;;;17.82;63.94;97385.50;2100898;28;19928;-65
2023/12/01 00:11:47;;;;;;;;;;;;;;;17.82;63.98;97387.38;2096615;28;20358;-65
2023/12/01 00:12:50;;;;;;;;;;;;;;;17.81;64.15;97375.03;2096406;28;19924;-65
2023/12/01 00:13:51;;;;;;;;;;;;;;;17.83;63.78;97373.75;2095347;28;19974;-64
2023/12/01 00:14:53;;;;;;;;;;;;;;;17.84;63.76;97371.88;2092446;28;19932;-64
2023/12/01 00:15:53;;;;;;;;;;;;;;;17.82;64.04;97365.91;2097385;28;20486;-65
2023/12/01 00:16:54;;;;;;;;;;;;;;;17.80;63.95;97366.16;2096025;28;19971;-65
2023/12/01 00:17:55;;;;;;;;;;;;;;;17.80;64.00;97357.28;2097559;28;19928;-64
2023/12/01 00:18:56;;;;;;;;;;;;;;;17.81;63.85;97366.97;2096757;28;20447;-64
2023/12/01 00:19:58;;;;;;;;;;;;;;;17.78;63.88;97362.03;2097259;28;19950;-65
2023/12/01 00:20:58;;;;;;;;;;;;;;;17.77;64.06;97361.19;2095247;28;19984;-64
2023/12/01 00:22:00;;;;;;;;;;;;;;;17.78;64.02;97362.03;2095157;28;19928;-65
2023/12/01 00:23:01;;;;;;;;;;;;;;;17.76;64.01;97362.25;2094660;28;19924;-65
2023/12/01 00:24:02;;;;;;;;;;;;;;;17.78;64.01;97365.56;2096939;28;19931;-64
2023/12/01 00:25:04;;;;;;;;;;;;;;;17.76;63.93;97364.13;2097321;28;19931;-64
2023/12/01 00:26:05;;;;;;;;;;;;;;;17.77;64.18;97360.38;2097231;28;19924;-64
2023/12/01 00:27:07;;;;;;;;;;;;;;;17.76;64.10;97350.72;2094737;28;19939;-64
2023/12/01 00:28:09;;;;;;;;;;;;;;;17.75;64.05;97344.53;2096432;28;19932;-64
2023/12/01 00:29:11;;;;;;;;;;;;;;;17.75;64.13;97344.53;2095163;28;20021;-65
2023/12/01 00:30:12;;;;;;;;;;;;;;;17.74;64.02;97342.06;2098466;28;19928;-64
2023/12/01 00:31:13;;;;;;;;;;;;;;;17.74;64.09;97334.03;2097188;28;20399;-63
2023/12/01 00:32:14;;;;;;;;;;;;;;;17.71;64.06;97337.16;2084092;28;19928;-63
2023/12/01 00:33:16;;;;;;;;;;;;;;;17.73;64.16;97338.59;2096381;28;19938;-63
2023/12/01 00:34:17;;;;;;;;;;;;;;;17.72;64.24;97345.00;2098568;28;19969;-64
2023/12/01 00:35:19;;;;;;;;;;;;;;;17.72;64.26;97344.16;2098115;28;20402;-64
2023/12/01 00:36:19;;;;;;;;;;;;;;;17.71;64.11;97342.53;2097737;28;19928;-64
2023/12/01 00:37:21;;;;;;;;;;;;;;;17.70;64.02;97336.34;2096902;28;19972;-64
2023/12/01 00:38:22;;;;;;;;;;;;;;;17.72;64.13;97341.47;2097064;28;19978;-64
2023/12/01 00:39:23;;;;;;;;;;;;;;;17.72;64.00;97336.13;2098309;28;19924;-64
2023/12/01 00:40:24;;;;;;;;;;;;;;;17.71;64.10;97337.97;2089852;28;19950;-65
2023/12/01 00:41:26;;;;;;;;;;;;;;;17.72;64.00;97336.13;2098070;28;19993;-64
2023/12/01 00:42:26;;;;;;;;;;;;;;;17.71;63.98;97337.16;2098842;28;20023;-65
2023/12/01 00:43:29;;;;;;;;;;;;;;;17.69;64.20;97336.56;2101020;28;19935;-65
2023/12/01 00:44:30;;;;;;;;;;;;;;;17.68;63.99;97332.28;2095690;28;19943;-65
2023/12/01 00:45:31;;;;;;;;;;;;;;;17.70;63.92;97340.91;2098331;28;19932;-64
2023/12/01 00:46:32;;;;;;;;;;;;;;;17.69;64.01;97323.16;2096945;28;19932;-64
2023/12/01 00:47:33;;;;;;;;;;;;;;;17.69;64.04;97328.53;2096533;28;19936;-64
2023/12/01 00:48:33;;;;;;;;;;;;;;;17.68;64.08;97318.88;2096786;28;20338;-64
2023/12/01 00:49:35;;;;;;;;;;;;;;;17.67;64.05;97325.28;2100323;28;19934;-65
2023/12/01 00:50:36;;;;;;;;;;;;;;;17.68;64.23;97313.50;2097370;28;19985;-64
2023/12/01 00:51:39;;;;;;;;;;;;;;;17.67;64.05;97311.88;2098815;28;20354;-64
2023/12/01 00:52:40;;;;;;;;;;;;;;;17.65;64.20;97310.22;2096803;28;20026;-65
2023/12/01 00:53:41;;;;;;;;;;;;;;;17.65;64.03;97306.72;2096942;28;19940;-65
2023/12/01 00:54:42;;;;;;;;;;;;;;;17.63;64.05;97308.81;2098500;28;19933;-64
2023/12/01 00:55:44;;;;;;;;;;;;;;;17.65;64.05;97301.38;2096457;28;20027;-64
2023/12/01 00:56:44;;;;;;;;;;;;;;;17.68;64.10;97313.50;2095800;28;19936;-64
2023/12/01 00:57:46;;;;;;;;;;;;;;;17.64;64.06;97305.09;2101325;28;19928;-64
2023/12/01 00:58:48;;;;;;;;;;;;;;;17.63;64.05;97306.97;2098087;28;19939;-65
2023/12/01 00:59:50;;;;;;;;;;;;;;;17.64;64.16;97316.66;2092445;28;19924;-63
2023/12/01 01:00:50;;;;;;;;;;;;;;;17.61;64.11;97321.66;2097829;28;19932;-63
2023/12/01 01:01:52;;;;;;;;;;;;;;;17.59;64.10;97313.81;2097935;28;19960;-64
2023/12/01 01:02:53;;;;;;;;;;;;;;;17.60;64.18;97310.09;2097033;28;19928;-65
2023/12/01 01:03:54;;;;;;;;;;;;;;;17.60;64.13;97325.38;2100087;28;20001;-65
2023/12/01 01:04:55;;;;;;;;;;;;;;;17.62;64.03;97317.91;2099839;28;19924;-65
2023/12/01 01:05:57;;;;;;;;;;;;;;;17.60;64.12;97320.00;2097553;28;19968;-64
2023/12/01 01:06:57;;;;;;;;;;;;;;;17.58;64.36;97317.56;2095777;28;19932;-65
2023/12/01 01:07:59;;;;;;;;;;;;;;;17.58;64.27;97312.19;2093419;28;19985;-65
2023/12/01 01:09:00;;;;;;;;;;;;;;;17.58;64.32;97314.88;2099494;28;19924;-65
2023/12/01 01:10:02;;;;;;;;;;;;;;;17.57;64.13;97321.28;2100363;28;20010;-66
2023/12/01 01:11:03;;;;;;;;;;;;;;;17.57;64.32;97315.91;2102404;28;19932;-65
2023/12/01 01:12:05;;;;;;;;;;;;;;;17.57;64.20;97329.31;2098409;28;20019;-68
2023/12/01 01:13:06;;;;;;;;;;;;;;;17.56;64.26;97327.69;2100603;28;19924;-67
2023/12/01 01:14:09;;;;;;;;;;;;;;;17.56;64.40;97330.38;2098982;28;19924;-64
2023/12/01 01:15:10;;;;;;;;;;;;;;;17.55;64.46;97328.75;2096138;28;19924;-64
2023/12/01 01:16:12;;;;;;;;;;;;;;;17.54;64.25;97321.72;2096346;28;20265;-65
2023/12/01 01:17:13;;;;;;;;;;;;;;;17.55;64.19;97322.53;2093851;28;19932;-64
2023/12/01 01:18:15;;;;;;;;;;;;;;;17.55;64.07;97327.91;2093956;28;19924;-65
2023/12/01 01:19:15;;;;;;;;;;;;;;;17.55;64.32;97315.34;2099373;28;19939;-68
2023/12/01 01:20:17;;;;;;;;;;;;;;;17.54;64.17;97324.41;2099886;28;19995;-65
2023/12/01 01:21:18;;;;;;;;;;;;;;;17.53;64.29;97324.66;2098902;28;19932;-65
2023/12/01 01:22:20;;;;;;;;;;;;;;;17.55;64.32;97327.91;2096434;28;20442;-65
2023/12/01 01:23:20;;;;;;;;;;;;;;;17.51;64.31;97332.91;2097648;28;19935;-65
2023/12/01 01:24:22;;;;;;;;;;;;;;;17.53;64.14;97336.19;2097842;28;20287;-64
2023/12/01 01:25:23;;;;;;;;;;;;;;;17.51;64.26;97337.47;2101037;28;19992;-64
2023/12/01 01:26:24;;;;;;;;;;;;;;;17.50;64.25;97336.66;2096602;28;20398;-65
2023/12/01 01:27:25;;;;;;;;;;;;;;;17.50;64.39;97339.34;2096977;28;19928;-65
2023/12/01 01:28:27;;;;;;;;;;;;;;;17.52;64.19;97339.09;2098113;28;19951;-65
2023/12/01 01:29:29;;;;;;;;;;;;;;;17.50;64.12;97344.69;2101367;28;20490;-64
2023/12/01 01:30:31;;;;;;;;;;;;;;;17.51;64.39;97349.00;2098473;28;19928;-64
2023/12/01 01:31:32;;;;;;;;;;;;;;;17.51;64.40;97357.03;2097684;28;19924;-64
2023/12/01 01:32:33;;;;;;;;;;;;;;;17.53;64.16;97357.63;2097387;28;20391;-64
2023/12/01 01:33:36;;;;;;;;;;;;;;;17.52;64.16;97347.94;2095938;28;19928;-65
2023/12/01 01:34:37;;;;;;;;;;;;;;;17.54;64.04;97359.25;2094879;28;19938;-66
2023/12/01 01:35:38;;;;;;;;;;;;;;;17.52;64.33;97350.63;2096027;28;20299;-65
2023/12/01 01:36:40;;;;;;;;;;;;;;;17.51;64.12;97342.81;2095782;28;20011;-65
2023/12/01 01:37:40;;;;;;;;;;;;;;;17.51;64.10;97343.63;2096199;28;19924;-66
2023/12/01 01:38:42;;;;;;;;;;;;;;;17.51;64.25;97348.19;2095095;28;19924;-65
2023/12/01 01:39:43;;;;;;;;;;;;;;;17.48;64.50;97344.09;2099528;28;19989;-65
2023/12/01 01:40:43;;;;;;;;;;;;;;;17.46;64.33;97348.84;2098561;28;19932;-65
2023/12/01 01:41:45;;;;;;;;;;;;;;;17.48;64.36;97341.41;2098263;28;20333;-65
2023/12/01 01:42:45;;;;;;;;;;;;;;;17.45;64.14;97339.19;2096604;28;21145;-65
2023/12/01 01:43:47;;;;;;;;;;;;;;;17.45;64.40;97333.03;2099629;28;19932;-64
2023/12/01 01:44:49;;;;;;;;;;;;;;;17.44;64.33;97334.88;2100525;28;19985;-63
2023/12/01 01:45:53;;;;;;;;;;;;;;;17.46;64.21;97329.28;2098269;28;20063;-64
2023/12/01 01:46:55;;;;;;;;;;;;;;;17.46;64.48;97340.00;2098996;28;19932;-64
2023/12/01 01:47:58;;;;;;;;;;;;;;;17.46;64.41;97324.72;2096387;28;20017;-64
2023/12/01 01:48:59;;;;;;;;;;;;;;;17.42;64.43;97323.56;2096523;28;20333;-64
2023/12/01 01:50:01;;;;;;;;;;;;;;;17.43;64.36;97319.84;2098307;28;20444;-64
2023/12/01 01:51:03;;;;;;;;;;;;;;;17.42;64.35;97320.88;2097779;28;19928;-65
2023/12/01 01:52:05;;;;;;;;;;;;;;;17.42;64.52;97320.88;2094351;28;20487;-64
2023/12/01 01:53:07;;;;;;;;;;;;;;;17.42;64.32;97321.69;2098444;28;19939;-64
2023/12/01 01:54:08;;;;;;;;;;;;;;;17.39;64.46;97313.31;2096385;28;19928;-64
2023/12/01 01:55:10;;;;;;;;;;;;;;;17.42;64.36;97318.22;2096495;28;20457;-66
2023/12/01 01:56:12;;;;;;;;;;;;;;;17.41;64.48;97319.22;2094836;28;20145;-67
2023/12/01 01:57:14;;;;;;;;;;;;;;;17.41;64.43;97321.91;2094976;28;19943;-65
2023/12/01 01:58:15;;;;;;;;;;;;;;;17.45;64.37;97333.03;2096543;28;19959;-63
2023/12/01 01:59:19;;;;;;;;;;;;;;;17.45;64.14;97333.84;2099306;28;20392;-64
2023/12/01 02:00:23;;;;;;;;;;;;;;;17.46;64.35;97326.59;2100957;28;19986;-64
2023/12/01 02:01:25;;;;;;;;;;;;;;;17.46;64.12;97321.25;2096789;28;20011;-64
2023/12/01 02:02:25;;;;;;;;;;;;;;;17.43;64.34;97319.84;2096260;28;19951;-65
2023/12/01 02:03:28;;;;;;;;;;;;;;;17.42;64.41;97313.66;2093404;28;19938;-64
2023/12/01 02:04:29;;;;;;;;;;;;;;;17.43;64.29;97309.91;2098801;28;19924;-65
2023/12/01 02:05:33;;;;;;;;;;;;;;;17.45;64.15;97314.25;2094837;28;19939;-64
2023/12/01 02:06:34;;;;;;;;;;;;;;;17.43;64.12;97307.25;2096609;28;19936;-65
2023/12/01 02:07:36;;;;;;;;;;;;;;;17.43;64.21;97314.47;2091096;28;20378;-64
2023/12/01 02:08:36;;;;;;;;;;;;;;;17.43;64.31;97315.28;2097082;28;19980;-65
2023/12/01 02:09:38;;;;;;;;;;;;;;;17.45;64.11;97312.38;2097913;28;20001;-64
2023/12/01 02:10:40;;;;;;;;;;;;;;;17.42;64.23;97307.47;2095272;28;19954;-64
2023/12/01 02:11:41;;;;;;;;;;;;;;;17.41;64.27;97312.03;2097190;28;19935;-64
2023/12/01 02:12:44;;;;;;;;;;;;;;;17.41;64.45;97308.50;2098226;28;19933;-63
2023/12/01 02:13:45;;;;;;;;;;;;;;;17.42;64.20;97310.16;2094859;28;20081;-64
2023/12/01 02:14:47;;;;;;;;;;;;;;;17.38;64.21;97308.97;2098933;28;19924;-64
2023/12/01 02:15:49;;;;;;;;;;;;;;;17.40;64.18;97314.94;2095117;28;19984;-65
2023/12/01 02:16:50;;;;;;;;;;;;;;;17.40;64.34;97310.38;2099370;28;20513;-64
2023/12/01 02:17:51;;;;;;;;;;;;;;;17.40;64.29;97304.22;2096809;28;19932;-64
2023/12/01 02:18:54;;;;;;;;;;;;;;;17.41;64.32;97303.16;2097700;28;19985;-64
2023/12/01 02:19:55;;;;;;;;;;;;;;;17.40;64.28;97296.16;2099041;28;19935;-65
2023/12/01 02:20:57;;;;;;;;;;;;;;;17.38;64.33;97296.41;2097049;28;19924;-64
2023/12/01 02:21:59;;;;;;;;;;;;;;;17.39;64.33;97299.91;2095972;28;19928;-65
2023/12/01 02:23:03;;;;;;;;;;;;;;;17.38;64.26;97304.44;2095324;28;20019;-64
2023/12/01 02:24:05;;;;;;;;;;;;;;;17.39;64.26;97294.53;2096820;28;19928;-64
2023/12/01 02:25:07;;;;;;;;;;;;;;;17.39;64.21;97297.22;2098634;28;22022;-65
2023/12/01 02:26:09;;;;;;;;;;;;;;;17.40;64.31;97296.16;2096064;28;19928;-65
2023/12/01 02:27:11;;;;;;;;;;;;;;;17.39;64.07;97300.72;2096877;28;19988;-65
2023/12/01 02:28:12;;;;;;;;;;;;;;;17.36;64.20;97295.00;2095842;28;19928;-60
2023/12/01 02:29:14;;;;;;;;;;;;;;;17.37;64.42;97297.44;2098062;28;19959;-64
2023/12/01 02:30:15;;;;;;;;;;;;;;;17.36;64.28;97286.97;2098540;28;19931;-63
2023/12/01 02:31:17;;;;;;;;;;;;;;;17.36;64.36;97300.38;2098281;28;19933;-66
2023/12/01 02:32:18;;;;;;;;;;;;;;;17.37;64.19;97286.72;2099650;28;20250;-64
2023/12/01 02:33:19;;;;;;;;;;;;;;;17.38;64.24;97282.16;2098652;28;19931;-64
2023/12/01 02:34:21;;;;;;;;;;;;;;;17.37;64.36;97277.88;2092469;28;19935;-65
2023/12/01 02:35:23;;;;;;;;;;;;;;;17.37;64.28;97285.91;2093872;28;19931;-64
2023/12/01 02:36:25;;;;;;;;;;;;;;;17.36;64.21;97281.59;2100262;28;20021;-65
2023/12/01 02:37:27;;;;;;;;;;;;;;;17.38;64.32;97291.06;2096893;28;20163;-65
2023/12/01 02:38:29;;;;;;;;;;;;;;;17.36;64.17;97284.28;2098319;28;19981;-64
2023/12/01 02:39:30;;;;;;;;;;;;;;;17.37;64.26;97272.50;2099280;28;20375;-64
2023/12/01 02:40:32;;;;;;;;;;;;;;;17.34;64.27;97278.31;2102216;28;19935;-64
2023/12/01 02:41:33;;;;;;;;;;;;;;;17.32;64.32;97272.38;2092351;28;21879;-63
2023/12/01 02:42:34;;;;;;;;;;;;;;;17.31;64.30;97276.91;2098621;28;19925;-65
2023/12/01 02:43:35;;;;;;;;;;;;;;;17.32;64.39;97258.97;2097801;28;19928;-64
2023/12/01 02:44:35;;;;;;;;;;;;;;;17.35;64.42;97256.63;2099288;28;19928;-65
2023/12/01 02:45:37;;;;;;;;;;;;;;;17.34;64.34;97262.25;2098678;28;20007;-65
2023/12/01 02:46:38;;;;;;;;;;;;;;;17.32;64.36;97275.88;2102418;28;19927;-64
2023/12/01 02:47:39;;;;;;;;;;;;;;;17.29;64.48;97284.34;2099525;28;20571;-65
2023/12/01 02:48:40;;;;;;;;;;;;;;;17.33;64.25;97284.75;2101019;28;20387;-65
2023/12/01 02:49:42;;;;;;;;;;;;;;;17.31;64.39;97290.31;2096136;28;19982;-64
2023/12/01 02:50:43;;;;;;;;;;;;;;;17.32;64.30;97296.50;2099306;28;19997;-64
2023/12/01 02:51:44;;;;;;;;;;;;;;;17.30;64.29;97298.56;2098920;28;19928;-64
2023/12/01 02:52:47;;;;;;;;;;;;;;;17.31;64.19;97300.22;2095929;28;19924;-65
2023/12/01 02:53:48;;;;;;;;;;;;;;;17.32;64.32;97304.53;2097965;28;19964;-65
2023/12/01 02:54:49;;;;;;;;;;;;;;;17.30;64.36;97299.41;2099658;28;19954;-65
2023/12/01 02:55:51;;;;;;;;;;;;;;;17.33;64.34;97304.31;2099253;28;20361;-65
2023/12/01 02:56:51;;;;;;;;;;;;;;;17.32;64.37;97301.84;2097363;28;19924;-65
2023/12/01 02:57:54;;;;;;;;;;;;;;;17.27;64.44;97305.19;2097743;28;20540;-65
2023/12/01 02:58:54;;;;;;;;;;;;;;;17.28;64.49;97312.22;2098736;28;20298;-64
2023/12/01 02:59:55;;;;;;;;;;;;;;;17.29;64.39;97313.84;2099146;28;19924;-64
2023/12/01 03:00:57;;;;;;;;;;;;;;;17.31;64.38;97303.72;2100195;28;19936;-64
2023/12/01 03:01:57;;;;;;;;;;;;;;;17.29;64.47;97308.47;2097517;28;20268;-64
2023/12/01 03:02:58;;;;;;;;;;;;;;;17.27;64.29;97304.38;2099577;28;19940;-64
2023/12/01 03:04:00;;;;;;;;;;;;;;;17.28;64.35;97306.84;2095653;28;19932;-64
2023/12/01 03:05:01;;;;;;;;;;;;;;;17.27;64.39;97307.88;2098911;28;20432;-65
2023/12/01 03:06:03;;;;;;;;;;;;;;;17.25;64.31;97298.47;2099238;28;19982;-67
2023/12/01 03:07:04;;;;;;;;;;;;;;;17.25;64.60;97301.13;2098859;28;20307;-68
2023/12/01 03:08:07;;;;;;;;;;;;;;;17.23;64.54;97303.22;2100499;28;19935;-65
2023/12/01 03:09:16;;;;;;;;;;;;;;;17.23;64.54;97304.03;2101981;28;19955;-66
2023/12/01 03:10:18;;;;;;;;;;;;;;;17.22;64.56;97306.91;2098670;28;19928;-64
2023/12/01 03:11:21;;;;;;;;;;;;;;;17.22;64.51;97309.59;2100894;28;19924;-64
2023/12/01 03:12:22;;;;;;;;;;;;;;;17.24;64.42;97297.63;2100979;28;19931;-64
2023/12/01 03:13:23;;;;;;;;;;;;;;;17.21;64.58;97298.06;2090931;28;19928;-64
2023/12/01 03:14:24;;;;;;;;;;;;;;;17.22;64.42;97290.84;2098949;28;20022;-64
2023/12/01 03:15:26;;;;;;;;;;;;;;;17.20;64.34;97278.50;2098009;28;19928;-64
2023/12/01 03:16:26;;;;;;;;;;;;;;;17.15;64.60;97281.03;2097035;28;19925;-64
2023/12/01 03:17:27;;;;;;;;;;;;;;;17.17;64.75;97278.16;2097371;28;20379;-64
2023/12/01 03:18:29;;;;;;;;;;;;;;;17.17;64.58;97275.47;2097778;28;19928;-64
2023/12/01 03:19:30;;;;;;;;;;;;;;;17.15;64.54;97277.56;2099224;28;19959;-64
2023/12/01 03:20:32;;;;;;;;;;;;;;;17.18;64.61;97287.81;2099023;28;20418;-64
2023/12/01 03:21:32;;;;;;;;;;;;;;;17.18;64.60;97285.94;2096054;28;19939;-64
2023/12/01 03:22:33;;;;;;;;;;;;;;;17.16;64.61;97281.84;2100039;28;19932;-64
2023/12/01 03:23:36;;;;;;;;;;;;;;;17.16;64.54;97287.22;2097586;28;20426;-65
2023/12/01 03:24:37;;;;;;;;;;;;;;;17.18;64.59;97285.94;2097877;28;19937;-64
2023/12/01 03:25:38;;;;;;;;;;;;;;;17.15;64.67;97286.41;2101379;28;19931;-64
2023/12/01 03:26:39;;;;;;;;;;;;;;;17.17;64.52;97281.66;2100460;28;19931;-65
2023/12/01 03:27:40;;;;;;;;;;;;;;;17.18;64.52;97288.63;2098364;28;19960;-64
2023/12/01 03:28:42;;;;;;;;;;;;;;;17.18;64.54;97291.31;2098827;28;20711;-65
2023/12/01 03:29:42;;;;;;;;;;;;;;;17.18;64.54;97298.53;2098574;28;20430;-64
2023/12/01 03:30:44;;;;;;;;;;;;;;;17.17;64.65;97303.06;2094074;28;19978;-64
2023/12/01 03:31:45;;;;;;;;;;;;;;;17.16;64.70;97293.41;2096703;28;20076;-64
2023/12/01 03:32:48;;;;;;;;;;;;;;;17.16;64.62;97300.59;2093374;28;20578;-64
2023/12/01 03:33:48;;;;;;;;;;;;;;;17.15;64.70;97293.63;2094796;28;20490;-64
2023/12/01 03:34:50;;;;;;;;;;;;;;;17.12;64.75;97286.84;2096423;28;19947;-65
2023/12/01 03:35:51;;;;;;;;;;;;;;;17.14;64.70;97300.84;2097653;28;19993;-65
2023/12/01 03:36:53;;;;;;;;;;;;;;;17.15;64.43;97299.00;2101064;28;20511;-65
2023/12/01 03:37:55;;;;;;;;;;;;;;;17.13;64.84;97299.22;2096382;28;19928;-65
2023/12/01 03:38:58;;;;;;;;;;;;;;;17.11;64.85;97289.78;2100448;28;20311;-64
2023/12/01 03:39:59;;;;;;;;;;;;;;;17.11;64.70;97285.22;2101571;28;19924;-64
2023/12/01 03:41:01;;;;;;;;;;;;;;;17.09;64.71;97287.31;2099037;28;20635;-64
2023/12/01 03:42:08;;;;;;;;;;;;;;;17.09;64.71;97287.31;2100726;28;19932;-64
2023/12/01 03:43:11;;;;;;;;;;;;;;;17.10;64.60;97288.94;2093583;28;21122;-64
2023/12/01 03:44:12;;;;;;;;;;;;;;;17.10;64.73;97293.47;2095128;28;19924;-65
2023/12/01 03:45:14;;;;;;;;;;;;;;;17.09;64.61;97290.00;2098018;28;19924;-62
2023/12/01 03:46:15;;;;;;;;;;;;;;;17.09;64.67;97294.53;2096245;28;19928;-63
2023/12/01 03:47:17;;;;;;;;;;;;;;;17.10;64.71;97304.19;2096739;28;19932;-64
2023/12/01 03:48:17;;;;;;;;;;;;;;;17.11;64.73;97308.53;2095928;28;19985;-64
2023/12/01 03:49:19;;;;;;;;;;;;;;;17.09;64.85;97302.56;2095380;28;19932;-64
2023/12/01 03:50:20;;;;;;;;;;;;;;;17.08;64.58;97309.81;2102254;28;19950;-64
2023/12/01 03:51:22;;;;;;;;;;;;;;;17.10;64.70;97310.38;2097859;28;19932;-65
2023/12/01 03:52:22;;;;;;;;;;;;;;;17.08;64.69;97312.47;2100513;28;19928;-64
2023/12/01 03:53:24;;;;;;;;;;;;;;;17.07;64.84;97318.06;2098534;28;19924;-64
2023/12/01 03:54:26;;;;;;;;;;;;;;;17.07;64.94;97326.09;2099354;28;19932;-64
2023/12/01 03:55:27;;;;;;;;;;;;;;;17.07;64.78;97316.19;2096683;28;20839;-65
2023/12/01 03:56:28;;;;;;;;;;;;;;;17.07;64.79;97310.81;2097143;28;19924;-65
2023/12/01 03:57:29;;;;;;;;;;;;;;;17.07;64.87;97312.69;2095574;28;19960;-65
2023/12/01 03:58:30;;;;;;;;;;;;;;;17.04;64.87;97313.97;2098814;28;19928;-64
2023/12/01 03:59:31;;;;;;;;;;;;;;;17.03;64.90;97308.84;2094737;28;19932;-64
2023/12/01 04:00:33;;;;;;;;;;;;;;;17.03;64.90;97306.16;2099101;28;20707;-64
2023/12/01 04:01:33;;;;;;;;;;;;;;;17.04;64.83;97313.16;2097602;28;19924;-64
2023/12/01 04:02:37;;;;;;;;;;;;;;;17.03;64.94;97298.94;2099956;28;19946;-65
2023/12/01 04:03:39;;;;;;;;;;;;;;;17.02;64.86;97305.34;2097248;28;19932;-64
2023/12/01 04:04:40;;;;;;;;;;;;;;;17.02;65.02;97305.34;2097606;28;19932;-64
2023/12/01 04:05:41;;;;;;;;;;;;;;;17.05;64.98;97306.72;2098697;28;20295;-64
2023/12/01 04:06:42;;;;;;;;;;;;;;;17.07;64.87;97310.00;2097076;28;19931;-64
2023/12/01 04:07:44;;;;;;;;;;;;;;;17.09;64.76;97300.72;2096026;28;20466;-64
2023/12/01 04:08:46;;;;;;;;;;;;;;;17.08;64.70;97296.41;2096565;28;19929;-64
2023/12/01 04:09:48;;;;;;;;;;;;;;;17.12;64.65;97294.91;2101154;28;19924;-64
2023/12/01 04:10:50;;;;;;;;;;;;;;;17.10;64.71;97291.63;2101910;28;20000;-64
2023/12/01 04:11:54;;;;;;;;;;;;;;;17.14;64.52;97295.50;2094519;28;20110;-66
2023/12/01 04:12:55;;;;;;;;;;;;;;;17.19;64.13;97282.25;2095801;28;20399;-65
2023/12/01 04:13:57;;;;;;;;;;;;;;;17.23;64.08;97287.13;2099322;28;19924;-65
2023/12/01 04:14:58;;;;;;;;;;;;;;;17.23;64.03;97290.63;2098725;28;19970;-65
2023/12/01 04:16:00;;;;;;;;;;;;;;;17.26;64.06;97292.03;2088961;28;20541;-65
2023/12/01 04:17:08;;;;;;;;;;;;;;;17.29;64.03;97296.94;2098438;28;19932;-65
2023/12/01 04:18:10;;;;;;;;;;;;;;;17.33;63.65;97290.91;2096918;28;20435;-65
2023/12/01 04:19:11;;;;;;;;;;;;;;;17.36;63.68;97297.69;2094210;28;19932;-67
2023/12/01 04:20:20;;;;;;;;;;;;;;;17.38;63.64;97284.84;2097752;28;20660;-64
2023/12/01 04:21:22;;;;;;;;;;;;;;;17.39;63.70;97286.50;2095559;28;19947;-65
2023/12/01 04:22:23;;;;;;;;;;;;;;;17.43;63.46;97285.81;2098984;28;19967;-65
2023/12/01 04:23:24;;;;;;;;;;;;;;;17.45;63.67;97274.06;2098361;28;19928;-65
2023/12/01 04:24:25;;;;;;;;;;;;;;;17.46;63.55;97271.13;2093435;28;19936;-64
2023/12/01 04:25:28;;;;;;;;;;;;;;;17.49;63.62;97272.53;2101270;28;19928;-64
2023/12/01 04:26:29;;;;;;;;;;;;;;;17.51;63.40;97271.25;2097386;28;19931;-64
2023/12/01 04:27:31;;;;;;;;;;;;;;;17.53;63.64;97271.84;2098128;28;19971;-65
2023/12/01 04:28:31;;;;;;;;;;;;;;;17.54;63.50;97261.94;2098794;28;19933;-64
2023/12/01 04:29:33;;;;;;;;;;;;;;;17.57;63.43;97259.59;2099366;28;20994;-64
2023/12/01 04:30:34;;;;;;;;;;;;;;;17.60;63.49;97255.66;2099102;28;19935;-65
2023/12/01 04:31:36;;;;;;;;;;;;;;;17.61;63.30;97246.59;2098667;28;19939;-64
2023/12/01 04:32:36;;;;;;;;;;;;;;;17.63;63.39;97239.94;2099405;28;19998;-64
2023/12/01 04:33:38;;;;;;;;;;;;;;;17.64;63.32;97236.22;2099388;28;19940;-64
2023/12/01 04:34:39;;;;;;;;;;;;;;;17.67;63.17;97236.81;2094931;28;19932;-64
2023/12/01 04:35:39;;;;;;;;;;;;;;;17.68;63.25;97235.75;2097866;28;19997;-64
2023/12/01 04:36:41;;;;;;;;;;;;;;;17.70;63.27;97236.34;2087590;28;20014;-65
2023/12/01 04:37:42;;;;;;;;;;;;;;;17.72;63.27;97235.06;2096773;28;19996;-64
2023/12/01 04:38:44;;;;;;;;;;;;;;;17.73;63.27;97233.19;2097119;28;20371;-64
2023/12/01 04:39:44;;;;;;;;;;;;;;;17.73;63.33;97238.56;2099026;28;19974;-64
2023/12/01 04:40:47;;;;;;;;;;;;;;;17.76;63.26;97230.03;2095137;28;20253;-65
2023/12/01 04:41:49;;;;;;;;;;;;;;;17.77;63.34;97234.34;2100074;28;20486;-64
2023/12/01 04:42:51;;;;;;;;;;;;;;;17.78;63.41;97233.31;2094242;28;19928;-64
2023/12/01 04:43:52;;;;;;;;;;;;;;;17.78;63.30;97225.28;2093152;28;19931;-64
2023/12/01 04:44:54;;;;;;;;;;;;;;;17.81;63.17;97230.19;2093256;28;19928;-64
2023/12/01 04:45:54;;;;;;;;;;;;;;;17.82;63.24;97247.91;2095886;28;19948;-64
2023/12/01 04:46:56;;;;;;;;;;;;;;;17.82;63.30;97238.00;2099616;28;19932;-65
2023/12/01 04:47:57;;;;;;;;;;;;;;;17.85;63.18;97250.13;2099382;28;19960;-65
2023/12/01 04:48:59;;;;;;;;;;;;;;;17.86;63.27;97236.50;2096464;28;19943;-65
2023/12/01 04:49:59;;;;;;;;;;;;;;;17.89;63.27;97235.22;2099240;28;19925;-66
2023/12/01 04:51:01;;;;;;;;;;;;;;;17.89;63.25;97237.09;2098476;28;19978;-64
2023/12/01 04:52:03;;;;;;;;;;;;;;;17.91;63.32;97237.66;2098469;28;20399;-64
2023/12/01 04:53:04;;;;;;;;;;;;;;;17.93;63.33;97235.56;2096912;28;19935;-64
2023/12/01 04:54:06;;;;;;;;;;;;;;;17.94;63.08;97242.53;2098087;28;19925;-65
2023/12/01 04:55:07;;;;;;;;;;;;;;;17.93;63.32;97239.06;2101012;28;20355;-64
2023/12/01 04:56:11;;;;;;;;;;;;;;;17.95;63.16;97242.31;2095623;28;19924;-64
2023/12/01 04:57:14;;;;;;;;;;;;;;;17.97;63.22;97250.97;2097173;28;19963;-63
2023/12/01 04:58:15;;;;;;;;;;;;;;;17.98;63.12;97246.41;2096390;28;19932;-64
2023/12/01 04:59:16;;;;;;;;;;;;;;;17.99;63.05;97259.56;2098376;28;19928;-63
2023/12/01 05:00:21;;;;;;;;;;;;;;;17.99;63.15;97264.13;2089324;28;20212;-64
2023/12/01 05:01:22;;;;;;;;;;;;;;;17.99;63.29;97273.00;2096818;28;20027;-64
2023/12/01 05:02:23;;;;;;;;;;;;;;;18.00;63.36;97274.63;2096919;28;19996;-64
2023/12/01 05:03:26;;;;;;;;;;;;;;;18.00;63.29;97282.69;2100529;28;19939;-64
2023/12/01 05:04:26;;;;;;;;;;;;;;;18.02;63.33;97275.19;2098216;28;19975;-64
2023/12/01 05:05:29;;;;;;;;;;;;;;;18.04;63.41;97283.03;2097423;28;19935;-64
2023/12/01 05:06:29;;;;;;;;;;;;;;;18.05;63.35;97285.50;2094813;28;20333;-65
2023/12/01 05:07:31;;;;;;;;;;;;;;;18.06;63.49;97279.06;2097317;28;19935;-63
2023/12/01 05:08:33;;;;;;;;;;;;;;;18.06;63.31;97287.13;2094774;28;19946;-65
2023/12/01 05:09:33;;;;;;;;;;;;;;;18.08;63.06;97285.03;2100679;28;19973;-65
2023/12/01 05:10:34;;;;;;;;;;;;;;;18.08;63.32;97282.34;2097310;28;20456;-65
2023/12/01 05:11:37;;;;;;;;;;;;;;;18.09;63.15;97280.47;2097774;28;20007;-64
2023/12/01 05:12:38;;;;;;;;;;;;;;;18.09;63.22;97285.84;2099346;28;19939;-64
2023/12/01 05:13:40;;;;;;;;;;;;;;;18.09;63.55;97278.59;2096744;28;20016;-64
2023/12/01 05:14:40;;;;;;;;;;;;;;;18.11;63.19;97274.84;2095963;28;20229;-64
2023/12/01 05:15:42;;;;;;;;;;;;;;;18.12;63.27;97281.88;2095224;28;19986;-64
2023/12/01 05:16:43;;;;;;;;;;;;;;;18.13;63.32;97275.44;2091678;28;19931;-64
2023/12/01 05:17:44;;;;;;;;;;;;;;;18.14;63.25;97272.53;2093492;28;19924;-65
2023/12/01 05:18:46;;;;;;;;;;;;;;;18.13;63.19;97270.09;2092408;28;20401;-65
2023/12/01 05:19:46;;;;;;;;;;;;;;;18.16;63.03;97265.06;2099203;28;20447;-64
2023/12/01 05:20:48;;;;;;;;;;;;;;;18.17;63.27;97273.94;2097445;28;20027;-65